createdAt,value
2016-09-23T00:00:33.174Z,0
2016-09-23T00:01:33.209Z,0
2016-09-23T00:02:33.219Z,0
2016-09-23T00:03:33.237Z,0
2016-09-23T00:04:33.257Z,0
2016-09-23T00:05:33.286Z,0
2016-09-23T00:06:33.306Z,0
2016-09-23T00:07:33.326Z,0
2016-09-23T00:08:33.350Z,0
2016-09-23T00:09:33.372Z,0
2016-09-23T00:10:33.395Z,0
2016-09-23T00:11:33.414Z,0
2016-09-23T00:12:33.439Z,0
2016-09-23T00:13:33.453Z,0
2016-09-23T00:14:33.484Z,0
2016-09-23T00:15:33.507Z,0
2016-09-23T00:16:33.526Z,0
2016-09-23T00:17:33.549Z,0
2016-09-23T00:18:33.567Z,0
2016-09-23T00:19:33.592Z,0
2016-09-23T00:20:33.610Z,0
2016-09-23T00:21:33.633Z,0
2016-09-23T00:22:33.657Z,0
2016-09-23T00:23:33.682Z,0
2016-09-23T00:24:33.702Z,0
2016-09-23T00:25:33.721Z,0
2016-09-23T00:26:33.743Z,0
2016-09-23T00:27:33.763Z,0
2016-09-23T00:28:33.792Z,0
2016-09-23T00:29:33.919Z,0
2016-09-23T00:30:33.927Z,0
2016-09-23T00:31:33.946Z,0
2016-09-23T00:32:33.978Z,0
2016-09-23T00:33:34.079Z,0
2016-09-23T00:34:34.090Z,0
2016-09-23T00:35:34.087Z,0
2016-09-23T00:36:34.096Z,0
2016-09-23T00:37:34.128Z,0
2016-09-23T00:38:34.113Z,0
2016-09-23T00:39:34.123Z,0
2016-09-23T00:40:34.254Z,0
2016-09-23T00:41:34.270Z,0
2016-09-23T00:42:34.275Z,0
2016-09-23T00:43:34.289Z,0
2016-09-23T00:44:34.297Z,0
2016-09-23T00:45:34.294Z,0
2016-09-23T00:46:34.268Z,0
2016-09-23T00:47:34.288Z,0
2016-09-23T00:48:34.294Z,0
2016-09-23T00:49:34.286Z,0
2016-09-23T00:50:34.294Z,0
2016-09-23T00:51:34.303Z,0
2016-09-23T00:52:34.310Z,0
2016-09-23T00:53:34.340Z,0
2016-09-23T00:54:34.355Z,0
2016-09-23T00:55:34.382Z,0
2016-09-23T00:56:34.404Z,0
2016-09-23T00:57:34.427Z,0
2016-09-23T00:58:34.444Z,0
2016-09-23T00:59:34.467Z,0
2016-09-23T01:00:34.491Z,0
2016-09-23T01:01:34.506Z,0
2016-09-23T01:02:34.532Z,0
2016-09-23T01:03:34.554Z,0
2016-09-23T01:04:34.573Z,0
2016-09-23T01:05:34.599Z,0
2016-09-23T01:06:34.624Z,0
2016-09-23T01:07:34.659Z,0
2016-09-23T01:08:34.659Z,0
2016-09-23T01:09:34.681Z,0
2016-09-23T01:10:34.709Z,0
2016-09-23T01:11:34.730Z,0
2016-09-23T01:12:34.754Z,0
2016-09-23T01:13:34.780Z,0
2016-09-23T01:14:34.797Z,0
2016-09-23T01:15:34.821Z,0
2016-09-23T01:16:34.848Z,0
2016-09-23T01:17:34.857Z,0
2016-09-23T01:18:34.884Z,0
2016-09-23T01:19:34.897Z,0
2016-09-23T01:20:34.929Z,0
2016-09-23T01:21:34.949Z,0
2016-09-23T01:22:34.971Z,0
2016-09-23T01:23:34.990Z,0
2016-09-23T01:24:35.013Z,0
2016-09-23T01:25:35.031Z,0
2016-09-23T01:26:35.061Z,0
2016-09-23T01:27:35.086Z,0
2016-09-23T01:28:35.093Z,0
2016-09-23T01:29:35.126Z,0
2016-09-23T01:30:35.145Z,0
2016-09-23T01:31:35.168Z,0
2016-09-23T01:32:35.191Z,0
2016-09-23T01:33:35.216Z,0
2016-09-23T01:34:35.238Z,0
2016-09-23T01:35:35.251Z,0
2016-09-23T01:36:35.275Z,0
2016-09-23T01:37:35.296Z,0
2016-09-23T01:38:35.317Z,0
2016-09-23T01:39:35.339Z,0
2016-09-23T01:40:35.361Z,0
2016-09-23T01:41:35.381Z,0
2016-09-23T01:42:35.401Z,0
2016-09-23T01:43:35.425Z,0
2016-09-23T01:44:35.447Z,0
2016-09-23T01:45:35.467Z,0
2016-09-23T01:46:35.489Z,0
2016-09-23T01:47:35.513Z,0
2016-09-23T01:48:35.534Z,0
2016-09-23T01:49:35.552Z,0
2016-09-23T01:50:35.577Z,0
2016-09-23T01:51:35.595Z,0
2016-09-23T01:52:35.619Z,0
2016-09-23T01:53:35.641Z,0
2016-09-23T01:54:35.669Z,0
2016-09-23T01:55:35.686Z,0
2016-09-23T01:56:35.702Z,0
2016-09-23T01:57:35.728Z,0
2016-09-23T01:58:35.757Z,0
2016-09-23T01:59:35.770Z,0
2016-09-23T02:00:35.796Z,0
2016-09-23T02:01:35.814Z,0
2016-09-23T02:02:35.966Z,0
2016-09-23T02:03:36.277Z,0
2016-09-23T02:04:35.973Z,0
2016-09-23T02:05:36.131Z,0
2016-09-23T02:06:36.143Z,0
2016-09-23T02:07:36.146Z,0
2016-09-23T02:08:36.163Z,0
2016-09-23T02:09:36.162Z,0
2016-09-23T02:10:36.309Z,0
2016-09-23T02:11:36.179Z,0
2016-09-23T02:12:36.187Z,0
2016-09-23T02:13:36.202Z,0
2016-09-23T02:14:36.195Z,0
2016-09-23T02:15:36.287Z,0
2016-09-23T02:16:36.256Z,0
2016-09-23T02:17:36.266Z,0
2016-09-23T02:18:36.261Z,0
2016-09-23T02:19:36.268Z,0
2016-09-23T02:20:36.387Z,0
2016-09-23T02:21:36.323Z,0
2016-09-23T02:22:36.335Z,0
2016-09-23T02:23:36.368Z,0
2016-09-23T02:24:36.688Z,0
2016-09-23T02:25:36.433Z,0
2016-09-23T02:26:36.701Z,0
2016-09-23T02:27:36.408Z,0
2016-09-23T02:28:36.400Z,0
2016-09-23T02:29:36.427Z,0
2016-09-23T02:30:36.479Z,0
2016-09-23T02:31:36.460Z,0
2016-09-23T02:32:36.482Z,0
2016-09-23T02:33:36.519Z,0
2016-09-23T02:34:36.525Z,0
2016-09-23T02:35:36.545Z,0
2016-09-23T02:36:36.575Z,0
2016-09-23T02:37:36.583Z,0
2016-09-23T02:38:36.620Z,0
2016-09-23T02:39:36.633Z,0
2016-09-23T02:40:36.673Z,0
2016-09-23T02:41:36.675Z,0
2016-09-23T02:42:36.703Z,0
2016-09-23T02:43:36.726Z,0
2016-09-23T02:44:36.746Z,0
2016-09-23T02:45:36.773Z,0
2016-09-23T02:46:36.785Z,0
2016-09-23T02:47:36.807Z,0
2016-09-23T02:48:36.825Z,0
2016-09-23T02:49:36.888Z,0
2016-09-23T02:50:36.874Z,0
2016-09-23T02:51:36.896Z,0
2016-09-23T02:52:36.915Z,0
2016-09-23T02:53:36.930Z,0
2016-09-23T02:54:36.961Z,0
2016-09-23T02:55:36.982Z,0
2016-09-23T02:56:37.001Z,0
2016-09-23T02:57:37.025Z,0
2016-09-23T02:58:37.046Z,0
2016-09-23T02:59:37.063Z,0
2016-09-23T03:00:37.092Z,0
2016-09-23T03:01:37.110Z,0
2016-09-23T03:02:37.128Z,0
2016-09-23T03:03:37.149Z,0
2016-09-23T03:04:37.189Z,0
2016-09-23T03:05:37.237Z,0
2016-09-23T03:06:37.217Z,0
2016-09-23T03:07:37.236Z,0
2016-09-23T03:08:37.263Z,0
2016-09-23T03:09:37.284Z,0
2016-09-23T03:10:37.313Z,0
2016-09-23T03:11:37.324Z,0
2016-09-23T03:12:37.345Z,0
2016-09-23T03:13:37.368Z,0
2016-09-23T03:14:37.398Z,0
2016-09-23T03:15:37.412Z,0
2016-09-23T03:16:37.435Z,0
2016-09-23T03:17:37.783Z,0
2016-09-23T03:18:37.475Z,0
2016-09-23T03:19:37.496Z,0
2016-09-23T03:20:37.520Z,0
2016-09-23T03:21:37.535Z,0
2016-09-23T03:22:37.876Z,0
2016-09-23T03:23:37.579Z,0
2016-09-23T03:24:37.607Z,0
2016-09-23T03:25:37.640Z,0
2016-09-23T03:26:37.647Z,0
2016-09-23T03:27:37.679Z,0
2016-09-23T03:28:37.690Z,0
2016-09-23T03:29:37.718Z,0
2016-09-23T03:30:37.739Z,0
2016-09-23T03:31:37.783Z,0
2016-09-23T03:32:37.779Z,0
2016-09-23T03:33:37.805Z,0
2016-09-23T03:34:37.824Z,0
2016-09-23T03:35:37.844Z,0
2016-09-23T03:36:37.864Z,0
2016-09-23T03:37:38.210Z,0
2016-09-23T03:38:37.906Z,0
2016-09-23T03:39:38.257Z,0
2016-09-23T03:40:37.950Z,0
2016-09-23T03:41:37.976Z,0
2016-09-23T03:42:37.990Z,0
2016-09-23T03:43:38.005Z,0
2016-09-23T03:44:38.051Z,0
2016-09-23T03:45:38.057Z,0
2016-09-23T03:46:38.077Z,0
2016-09-23T03:47:38.102Z,0
2016-09-23T03:48:38.116Z,0
2016-09-23T03:49:38.142Z,0
2016-09-23T03:50:38.157Z,0
2016-09-23T03:51:38.185Z,0
2016-09-23T03:52:38.202Z,0
2016-09-23T03:53:38.222Z,0
2016-09-23T03:54:38.248Z,0
2016-09-23T03:55:38.270Z,0
2016-09-23T03:56:38.292Z,0
2016-09-23T03:57:38.304Z,0
2016-09-23T03:58:38.327Z,0
2016-09-23T03:59:38.353Z,0
2016-09-23T04:00:38.382Z,0
2016-09-23T04:01:38.398Z,0
2016-09-23T04:02:38.428Z,0
2016-09-23T04:03:38.442Z,0
2016-09-23T04:04:38.466Z,0
2016-09-23T04:05:38.482Z,0
2016-09-23T04:06:38.503Z,0
2016-09-23T04:07:38.532Z,0
2016-09-23T04:08:38.541Z,0
2016-09-23T04:09:38.567Z,0
2016-09-23T04:10:38.585Z,0
2016-09-23T04:11:38.608Z,0
2016-09-23T04:12:38.633Z,0
2016-09-23T04:13:38.651Z,0
2016-09-23T04:14:38.691Z,0
2016-09-23T04:15:38.698Z,0
2016-09-23T04:16:38.717Z,0
2016-09-23T04:17:38.739Z,0
2016-09-23T04:18:38.763Z,0
2016-09-23T04:19:38.780Z,0
2016-09-23T04:20:38.803Z,0
2016-09-23T04:21:38.820Z,0
2016-09-23T04:22:38.846Z,0
2016-09-23T04:23:38.865Z,0
2016-09-23T04:24:38.887Z,0
2016-09-23T04:25:38.911Z,0
2016-09-23T04:26:38.925Z,0
2016-09-23T04:27:38.951Z,0
2016-09-23T04:28:38.978Z,0
2016-09-23T04:29:38.994Z,0
2016-09-23T04:30:39.015Z,0
2016-09-23T04:31:39.038Z,0
2016-09-23T04:32:39.056Z,0
2016-09-23T04:33:39.083Z,0
2016-09-23T04:34:39.100Z,0
2016-09-23T04:35:39.129Z,0
2016-09-23T04:36:39.147Z,0
2016-09-23T04:37:39.168Z,0
2016-09-23T04:38:39.183Z,0
2016-09-23T04:39:39.204Z,0
2016-09-23T04:40:39.226Z,4
2016-09-23T04:41:39.659Z,4
2016-09-23T04:42:39.268Z,4
2016-09-23T04:43:39.381Z,0
2016-09-23T04:44:39.415Z,4
2016-09-23T04:45:39.423Z,4
2016-09-23T04:46:39.423Z,8
2016-09-23T04:47:39.431Z,4
2016-09-23T04:48:39.440Z,8
2016-09-23T04:49:39.450Z,8
2016-09-23T04:50:39.457Z,8
2016-09-23T04:51:39.577Z,8
2016-09-23T04:52:39.629Z,12
2016-09-23T04:53:39.610Z,12
2016-09-23T04:54:39.619Z,16
2016-09-23T04:55:39.652Z,12
2016-09-23T04:56:39.666Z,20
2016-09-23T04:57:39.585Z,16
2016-09-23T04:58:39.690Z,20
2016-09-23T04:59:39.626Z,20
2016-09-23T05:00:39.764Z,24
2016-09-23T05:01:39.811Z,24
2016-09-23T05:02:39.756Z,28
2016-09-23T05:03:39.865Z,28
2016-09-23T05:04:39.737Z,32
2016-09-23T05:05:39.764Z,36
2016-09-23T05:06:39.784Z,40
2016-09-23T05:07:39.795Z,44
2016-09-23T05:08:39.817Z,44
2016-09-23T05:09:39.838Z,52
2016-09-23T05:10:39.856Z,56
2016-09-23T05:11:39.879Z,64
2016-09-23T05:12:39.904Z,72
2016-09-23T05:13:39.942Z,80
2016-09-23T05:14:39.942Z,84
2016-09-23T05:15:40.281Z,92
2016-09-23T05:16:39.994Z,96
2016-09-23T05:17:40.011Z,100
2016-09-23T05:18:40.037Z,100
2016-09-23T05:19:40.045Z,100
2016-09-23T05:20:40.080Z,100
2016-09-23T05:21:40.089Z,104
2016-09-23T05:22:40.111Z,104
2016-09-23T05:23:40.137Z,108
2016-09-23T05:24:40.155Z,108
2016-09-23T05:25:40.174Z,116
2016-09-23T05:26:40.212Z,116
2016-09-23T05:27:40.218Z,120
2016-09-23T05:28:40.241Z,124
2016-09-23T05:29:40.263Z,128
2016-09-23T05:30:40.286Z,132
2016-09-23T05:31:40.425Z,136
2016-09-23T05:32:40.420Z,140
2016-09-23T05:33:40.445Z,144
2016-09-23T05:34:40.516Z,156
2016-09-23T05:35:40.476Z,168
2016-09-23T05:36:40.494Z,184
2016-09-23T05:37:40.612Z,192
2016-09-23T05:38:40.592Z,204
2016-09-23T05:39:40.596Z,216
2016-09-23T05:40:40.747Z,224
2016-09-23T05:41:40.736Z,228
2016-09-23T05:42:40.743Z,236
2016-09-23T05:43:40.752Z,244
2016-09-23T05:44:40.768Z,252
2016-09-23T05:45:40.775Z,260
2016-09-23T05:46:40.785Z,268
2016-09-23T05:47:40.782Z,276
2016-09-23T05:48:40.795Z,284
2016-09-23T05:49:40.763Z,292
2016-09-23T05:50:40.773Z,300
2016-09-23T05:51:40.774Z,304
2016-09-23T05:52:41.202Z,308
2016-09-23T05:53:40.785Z,316
2016-09-23T05:54:40.796Z,320
2016-09-23T05:55:40.806Z,324
2016-09-23T05:56:40.833Z,328
2016-09-23T05:57:40.848Z,328
2016-09-23T05:58:40.869Z,320
2016-09-23T05:59:40.893Z,308
2016-09-23T06:00:40.915Z,300
2016-09-23T06:01:40.934Z,288
2016-09-23T06:02:40.955Z,280
2016-09-23T06:03:40.981Z,276
2016-09-23T06:04:40.997Z,272
2016-09-23T06:05:41.023Z,268
2016-09-23T06:06:41.042Z,264
2016-09-23T06:07:41.061Z,268
2016-09-23T06:08:41.082Z,268
2016-09-23T06:09:41.097Z,272
2016-09-23T06:10:41.128Z,276
2016-09-23T06:11:41.144Z,288
2016-09-23T06:12:41.163Z,304
2016-09-23T06:13:41.187Z,312
2016-09-23T06:14:41.203Z,316
2016-09-23T06:15:41.229Z,320
2016-09-23T06:16:41.263Z,332
2016-09-23T06:17:41.445Z,344
2016-09-23T06:18:41.301Z,356
2016-09-23T06:19:41.332Z,368
2016-09-23T06:20:41.353Z,380
2016-09-23T06:21:41.352Z,396
2016-09-23T06:22:41.380Z,408
2016-09-23T06:23:41.402Z,412
2016-09-23T06:24:41.740Z,420
2016-09-23T06:25:41.446Z,424
2016-09-23T06:26:41.464Z,432
2016-09-23T06:27:41.480Z,436
2016-09-23T06:28:41.589Z,428
2016-09-23T06:29:41.531Z,420
2016-09-23T06:30:41.552Z,416
2016-09-23T06:31:41.564Z,412
2016-09-23T06:32:41.592Z,404
2016-09-23T06:33:41.613Z,392
2016-09-23T06:34:41.631Z,388
2016-09-23T06:35:41.653Z,388
2016-09-23T06:36:41.667Z,388
2016-09-23T06:37:41.698Z,384
2016-09-23T06:38:41.717Z,388
2016-09-23T06:39:42.054Z,396
2016-09-23T06:40:41.760Z,404
2016-09-23T06:41:41.786Z,408
2016-09-23T06:42:41.804Z,420
2016-09-23T06:43:41.816Z,432
2016-09-23T06:44:41.846Z,436
2016-09-23T06:45:41.868Z,428
2016-09-23T06:46:41.892Z,420
2016-09-23T06:47:41.905Z,412
2016-09-23T06:48:41.924Z,408
2016-09-23T06:49:41.953Z,400
2016-09-23T06:50:41.969Z,388
2016-09-23T06:51:41.991Z,380
2016-09-23T06:52:42.012Z,368
2016-09-23T06:53:42.033Z,364
2016-09-23T06:54:42.058Z,360
2016-09-23T06:55:42.076Z,360
2016-09-23T06:56:42.094Z,364
2016-09-23T06:57:42.115Z,364
2016-09-23T06:58:42.146Z,360
2016-09-23T06:59:42.169Z,356
2016-09-23T07:00:42.183Z,348
2016-09-23T07:01:42.210Z,348
2016-09-23T07:02:42.222Z,348
2016-09-23T07:03:42.248Z,348
2016-09-23T07:04:42.268Z,352
2016-09-23T07:05:42.293Z,356
2016-09-23T07:06:42.310Z,368
2016-09-23T07:07:42.448Z,368
2016-09-23T07:08:42.478Z,372
2016-09-23T07:09:42.464Z,380
2016-09-23T07:10:42.482Z,388
2016-09-23T07:11:42.644Z,388
2016-09-23T07:12:42.653Z,380
2016-09-23T07:13:42.667Z,372
2016-09-23T07:14:42.677Z,368
2016-09-23T07:15:42.692Z,372
2016-09-23T07:16:43.003Z,380
2016-09-23T07:17:42.691Z,384
2016-09-23T07:18:42.745Z,388
2016-09-23T07:19:42.752Z,392
2016-09-23T07:20:42.747Z,396
2016-09-23T07:21:42.770Z,400
2016-09-23T07:22:42.768Z,404
2016-09-23T07:23:42.776Z,400
2016-09-23T07:24:42.786Z,408
2016-09-23T07:25:42.785Z,404
2016-09-23T07:26:42.832Z,412
2016-09-23T07:27:42.841Z,416
2016-09-23T07:28:42.854Z,428
2016-09-23T07:29:42.881Z,440
2016-09-23T07:30:42.883Z,444
2016-09-23T07:31:42.838Z,456
2016-09-23T07:32:42.872Z,472
2016-09-23T07:33:42.891Z,492
2016-09-23T07:34:42.923Z,516
2016-09-23T07:35:42.931Z,532
2016-09-23T07:36:42.942Z,556
2016-09-23T07:37:42.966Z,568
2016-09-23T07:38:43.002Z,584
2016-09-23T07:39:43.004Z,588
2016-09-23T07:40:43.038Z,588
2016-09-23T07:41:43.051Z,604
2016-09-23T07:42:43.080Z,620
2016-09-23T07:43:43.095Z,644
2016-09-23T07:44:43.118Z,672
2016-09-23T07:45:43.146Z,696
2016-09-23T07:46:43.155Z,708
2016-09-23T07:47:43.177Z,704
2016-09-23T07:48:43.202Z,696
2016-09-23T07:49:43.218Z,672
2016-09-23T07:50:43.246Z,636
2016-09-23T07:51:43.259Z,596
2016-09-23T07:52:43.285Z,568
2016-09-23T07:53:43.315Z,532
2016-09-23T07:54:43.330Z,496
2016-09-23T07:55:43.353Z,468
2016-09-23T07:56:43.367Z,436
2016-09-23T07:57:43.391Z,416
2016-09-23T07:58:43.417Z,396
2016-09-23T07:59:43.433Z,384
2016-09-23T08:00:43.460Z,368
2016-09-23T08:01:43.476Z,360
2016-09-23T08:02:43.501Z,364
2016-09-23T08:03:43.526Z,376
2016-09-23T08:04:43.555Z,376
2016-09-23T08:05:43.569Z,372
2016-09-23T08:06:43.587Z,372
2016-09-23T08:07:43.629Z,372
2016-09-23T08:08:43.636Z,380
2016-09-23T08:09:43.656Z,388
2016-09-23T08:10:43.677Z,396
2016-09-23T08:11:43.706Z,408
2016-09-23T08:12:43.717Z,408
2016-09-23T08:13:43.733Z,416
2016-09-23T08:14:43.771Z,420
2016-09-23T08:15:43.782Z,420
2016-09-23T08:16:43.809Z,424
2016-09-23T08:17:43.842Z,428
2016-09-23T08:18:43.846Z,432
2016-09-23T08:19:43.871Z,436
2016-09-23T08:20:43.894Z,440
2016-09-23T08:21:44.232Z,444
2016-09-23T08:22:43.933Z,448
2016-09-23T08:23:43.956Z,448
2016-09-23T08:24:43.975Z,452
2016-09-23T08:25:43.996Z,448
2016-09-23T08:26:44.041Z,448
2016-09-23T08:27:44.045Z,444
2016-09-23T08:28:44.073Z,444
2016-09-23T08:29:44.087Z,448
2016-09-23T08:30:44.111Z,452
2016-09-23T08:31:44.138Z,452
2016-09-23T08:32:44.155Z,456
2016-09-23T08:33:44.189Z,456
2016-09-23T08:34:44.200Z,460
2016-09-23T08:35:44.216Z,464
2016-09-23T08:36:44.242Z,472
2016-09-23T08:37:44.261Z,468
2016-09-23T08:38:44.283Z,472
2016-09-23T08:39:44.307Z,476
2016-09-23T08:40:44.326Z,476
2016-09-23T08:41:44.352Z,476
2016-09-23T08:42:44.486Z,472
2016-09-23T08:43:44.489Z,468
2016-09-23T08:44:44.506Z,468
2016-09-23T08:45:44.534Z,464
2016-09-23T08:46:44.554Z,472
2016-09-23T08:47:44.640Z,468
2016-09-23T08:48:44.658Z,472
2016-09-23T08:49:44.646Z,476
2016-09-23T08:50:44.800Z,484
2016-09-23T08:51:44.678Z,484
2016-09-23T08:52:44.810Z,484
2016-09-23T08:53:44.824Z,488
2016-09-23T08:54:44.823Z,496
2016-09-23T08:55:44.834Z,504
2016-09-23T08:56:44.843Z,504
2016-09-23T08:57:44.854Z,508
2016-09-23T08:58:44.869Z,508
2016-09-23T08:59:44.857Z,512
2016-09-23T09:00:44.882Z,516
2016-09-23T09:01:44.831Z,520
2016-09-23T09:02:44.860Z,524
2016-09-23T09:03:44.840Z,524
2016-09-23T09:04:44.858Z,528
2016-09-23T09:05:44.973Z,532
2016-09-23T09:06:44.937Z,540
2016-09-23T09:07:44.967Z,548
2016-09-23T09:08:44.986Z,552
2016-09-23T09:09:45.011Z,556
2016-09-23T09:10:45.031Z,564
2016-09-23T09:11:45.067Z,568
2016-09-23T09:12:45.061Z,576
2016-09-23T09:13:45.095Z,584
2016-09-23T09:14:45.110Z,588
2016-09-23T09:15:45.134Z,596
2016-09-23T09:16:45.164Z,600
2016-09-23T09:17:45.202Z,608
2016-09-23T09:18:45.199Z,612
2016-09-23T09:19:45.230Z,616
2016-09-23T09:20:45.245Z,616
2016-09-23T09:21:45.272Z,620
2016-09-23T09:22:45.294Z,628
2016-09-23T09:23:45.334Z,632
2016-09-23T09:24:45.364Z,640
2016-09-23T09:25:45.378Z,644
2016-09-23T09:26:45.393Z,644
2016-09-23T09:27:45.416Z,656
2016-09-23T09:28:45.433Z,656
2016-09-23T09:29:45.453Z,660
2016-09-23T09:30:45.481Z,664
2016-09-23T09:31:45.517Z,672
2016-09-23T09:32:45.520Z,676
2016-09-23T09:33:45.552Z,680
2016-09-23T09:34:45.574Z,688
2016-09-23T09:35:45.600Z,692
2016-09-23T09:36:45.624Z,700
2016-09-23T09:37:45.653Z,708
2016-09-23T09:38:45.660Z,712
2016-09-23T09:39:45.693Z,728
2016-09-23T09:40:45.725Z,740
2016-09-23T09:41:45.727Z,748
2016-09-23T09:42:45.759Z,752
2016-09-23T09:43:45.783Z,756
2016-09-23T09:44:45.810Z,772
2016-09-23T09:45:45.829Z,784
2016-09-23T09:46:45.849Z,800
2016-09-23T09:47:45.883Z,820
2016-09-23T09:48:45.895Z,836
2016-09-23T09:49:45.937Z,864
2016-09-23T09:50:45.952Z,904
2016-09-23T09:52:45.998Z,1000
2016-09-23T09:53:46.026Z,1004
2016-09-23T09:54:46.040Z,992
2016-09-23T09:55:46.064Z,980
2016-09-23T09:56:46.087Z,1028
2016-09-23T09:57:46.126Z,1040
2016-09-23T09:58:46.140Z,984
2016-09-23T09:59:46.181Z,976
2016-09-23T10:00:46.184Z,992
2016-09-23T10:01:46.215Z,1024
2016-09-23T10:02:46.243Z,1040
2016-09-23T10:03:46.261Z,1048
2016-09-23T10:04:46.275Z,1040
2016-09-23T10:05:46.310Z,972
2016-09-23T10:06:46.321Z,956
2016-09-23T10:07:46.340Z,940
2016-09-23T10:08:46.367Z,936
2016-09-23T10:09:46.410Z,936
2016-09-23T10:10:46.428Z,944
2016-09-23T10:11:46.453Z,956
2016-09-23T10:12:46.493Z,968
2016-09-23T10:13:46.496Z,972
2016-09-23T10:14:46.526Z,972
2016-09-23T10:15:46.560Z,972
2016-09-23T10:16:46.579Z,980
2016-09-23T10:17:46.594Z,984
2016-09-23T10:18:46.631Z,976
2016-09-23T10:19:46.648Z,980
2016-09-23T10:20:46.669Z,996
2016-09-23T10:21:46.700Z,984
2016-09-23T10:22:46.719Z,992
2016-09-23T10:23:46.749Z,1000
2016-09-23T10:24:46.768Z,1008
2016-09-23T10:25:46.794Z,1024
2016-09-23T10:26:46.825Z,1020
2016-09-23T10:27:46.858Z,1028
2016-09-23T10:28:46.866Z,1056
2016-09-23T10:29:46.881Z,1060
2016-09-23T10:30:46.919Z,1060
2016-09-23T10:31:46.940Z,1068
2016-09-23T10:32:46.956Z,1084
2016-09-23T10:33:46.989Z,1096
2016-09-23T10:34:47.009Z,1104
2016-09-23T10:35:47.033Z,1116
2016-09-23T10:36:47.058Z,1108
2016-09-23T10:37:47.090Z,1108
2016-09-23T10:38:47.114Z,1112
2016-09-23T10:39:47.138Z,1112
2016-09-23T10:40:47.151Z,1124
2016-09-23T10:41:47.173Z,1160
2016-09-23T10:42:47.213Z,1172
2016-09-23T10:43:47.239Z,1188
2016-09-23T10:44:47.267Z,1216
2016-09-23T10:45:47.294Z,1224
2016-09-23T10:46:47.325Z,1216
2016-09-23T10:47:47.339Z,1216
2016-09-23T10:48:47.363Z,1212
2016-09-23T10:49:47.384Z,1196
2016-09-23T10:50:47.410Z,1200
2016-09-23T10:51:47.438Z,1192
2016-09-23T10:52:47.456Z,1200
2016-09-23T10:53:47.487Z,1228
2016-09-23T10:54:47.516Z,1240
2016-09-23T10:55:47.549Z,1248
2016-09-23T10:56:47.574Z,1236
2016-09-23T10:57:47.609Z,1208
2016-09-23T10:58:47.617Z,1168
2016-09-23T10:59:47.645Z,1192
2016-09-23T11:00:47.665Z,1232
2016-09-23T11:01:47.700Z,1240
2016-09-23T11:02:47.729Z,1252
2016-09-23T11:03:47.737Z,1264
2016-09-23T11:04:47.785Z,1248
2016-09-23T11:05:47.794Z,1200
2016-09-23T11:06:47.812Z,1168
2016-09-23T11:07:47.964Z,1152
2016-09-23T11:08:47.973Z,1144
2016-09-23T11:09:48.008Z,1180
2016-09-23T11:10:48.008Z,1224
2016-09-23T11:11:48.018Z,1240
2016-09-23T11:12:48.043Z,1296
2016-09-23T11:13:48.036Z,1396
2016-09-23T11:14:48.042Z,1416
2016-09-23T11:15:48.175Z,928
2016-09-23T11:16:48.110Z,1280
2016-09-23T11:17:48.119Z,1252
2016-09-23T11:18:48.130Z,1252
2016-09-23T11:19:48.250Z,1276
2016-09-23T11:20:48.501Z,1280
2016-09-23T11:21:48.287Z,1288
2016-09-23T11:22:48.295Z,1344
2016-09-23T11:23:48.300Z,1404
2016-09-23T11:24:48.313Z,1476
2016-09-23T11:25:48.314Z,1508
2016-09-23T11:26:48.357Z,1276
2016-09-23T11:27:48.372Z,1212
2016-09-23T11:28:48.396Z,1228
2016-09-23T11:29:48.421Z,1288
2016-09-23T11:30:48.451Z,1264
2016-09-23T11:31:48.470Z,1236
2016-09-23T11:32:48.491Z,1216
2016-09-23T11:33:48.535Z,1208
2016-09-23T11:34:48.547Z,1228
2016-09-23T11:35:48.575Z,1224
2016-09-23T11:36:48.603Z,1220
2016-09-23T11:37:48.626Z,1016
2016-09-23T11:38:48.667Z,1220
2016-09-23T11:39:48.699Z,1268
2016-09-23T11:40:48.705Z,1280
2016-09-23T11:41:48.724Z,1324
2016-09-23T11:42:49.087Z,1312
2016-09-23T11:43:48.779Z,1208
2016-09-23T11:44:49.145Z,1160
2016-09-23T11:45:48.844Z,940
2016-09-23T11:46:48.860Z,980
2016-09-23T11:47:48.891Z,1208
2016-09-23T11:48:48.912Z,1248
2016-09-23T11:49:48.958Z,1248
2016-09-23T11:50:48.978Z,1260
2016-09-23T11:51:49.007Z,1252
2016-09-23T11:52:49.036Z,1260
2016-09-23T11:53:49.065Z,1228
2016-09-23T11:54:49.085Z,1304
2016-09-23T11:55:49.121Z,1176
2016-09-23T11:56:49.135Z,1200
2016-09-23T11:57:49.158Z,1100
2016-09-23T11:58:49.203Z,1388
2016-09-23T11:59:49.231Z,1404
2016-09-23T12:00:49.247Z,1280
2016-09-23T12:01:49.267Z,1032
2016-09-23T12:02:49.284Z,1276
2016-09-23T12:03:49.325Z,1332
2016-09-23T12:04:49.376Z,1420
2016-09-23T12:05:49.367Z,1568
2016-09-23T12:06:49.403Z,1680
2016-09-23T12:07:49.438Z,1928
2016-09-23T12:08:49.461Z,2056
2016-09-23T12:09:49.497Z,1816
2016-09-23T12:10:49.523Z,1508
2016-09-23T12:11:49.960Z,1228
2016-09-23T12:12:49.567Z,1272
2016-09-23T12:13:49.610Z,1064
2016-09-23T12:14:49.624Z,1212
2016-09-23T12:15:49.653Z,1244
2016-09-23T12:16:49.678Z,1300
2016-09-23T12:17:49.708Z,1328
2016-09-23T12:18:49.732Z,1536
2016-09-23T12:19:49.758Z,1640
2016-09-23T12:20:49.787Z,1708
2016-09-23T12:21:49.812Z,1732
2016-09-23T12:22:49.974Z,1744
2016-09-23T12:23:49.958Z,1676
2016-09-23T12:24:50.133Z,1688
2016-09-23T12:25:50.145Z,1716
2016-09-23T12:26:50.154Z,1504
2016-09-23T12:27:50.162Z,1484
2016-09-23T12:28:50.161Z,1504
2016-09-23T12:29:50.173Z,1604
2016-09-23T12:30:50.181Z,1824
2016-09-23T12:31:50.187Z,2168
2016-09-23T12:32:50.215Z,2492
2016-09-23T12:33:50.239Z,2616
2016-09-23T12:34:50.285Z,2468
2016-09-23T12:35:50.302Z,2300
2016-09-23T12:36:50.308Z,2120
2016-09-23T12:37:50.327Z,1904
2016-09-23T12:38:50.346Z,1684
2016-09-23T12:39:50.620Z,1508
2016-09-23T12:40:50.354Z,1420
2016-09-23T12:41:50.370Z,1264
2016-09-23T12:42:50.397Z,1108
2016-09-23T12:43:50.423Z,1112
2016-09-23T12:44:50.454Z,1212
2016-09-23T12:45:50.496Z,1368
2016-09-23T12:46:50.531Z,1400
2016-09-23T12:47:50.542Z,1120
2016-09-23T12:48:50.564Z,860
2016-09-23T12:49:50.604Z,804
2016-09-23T12:50:50.614Z,812
2016-09-23T12:51:50.641Z,844
2016-09-23T12:52:50.679Z,960
2016-09-23T12:53:50.700Z,1160
2016-09-23T12:54:51.041Z,1316
2016-09-23T12:55:50.760Z,1368
2016-09-23T12:56:50.799Z,1384
2016-09-23T12:57:50.821Z,1272
2016-09-23T12:58:50.863Z,1208
2016-09-23T12:59:50.898Z,1180
2016-09-23T13:00:50.903Z,1168
2016-09-23T13:01:50.935Z,1164
2016-09-23T13:02:51.266Z,1160
2016-09-23T13:03:50.980Z,1144
2016-09-23T13:04:51.020Z,1140
2016-09-23T13:05:51.104Z,1144
2016-09-23T13:06:51.081Z,1132
2016-09-23T13:07:51.099Z,1144
2016-09-23T13:08:51.135Z,1160
2016-09-23T13:09:51.142Z,1172
2016-09-23T13:10:51.187Z,1180
2016-09-23T13:11:51.215Z,1152
2016-09-23T13:12:51.235Z,1116
2016-09-23T13:13:51.498Z,1168
2016-09-23T13:14:51.687Z,1308
2016-09-23T13:15:51.337Z,1440
2016-09-23T13:16:51.353Z,1524
2016-09-23T13:17:51.381Z,1504
2016-09-23T13:18:51.415Z,1552
2016-09-23T13:19:51.443Z,1712
2016-09-23T13:20:51.458Z,1992
2016-09-23T13:21:51.502Z,2396
2016-09-23T13:22:51.537Z,2640
2016-09-23T13:23:51.572Z,2504
2016-09-23T13:24:51.600Z,2280
2016-09-23T13:25:51.614Z,2052
2016-09-23T13:26:51.650Z,1856
2016-09-23T13:27:51.672Z,1772
2016-09-23T13:28:51.700Z,1684
2016-09-23T13:29:51.727Z,1692
2016-09-23T13:30:51.777Z,1608
2016-09-23T13:31:51.788Z,1544
2016-09-23T13:32:51.809Z,1492
2016-09-23T13:33:51.845Z,1456
2016-09-23T13:34:51.873Z,1336
2016-09-23T13:35:52.026Z,1112
2016-09-23T13:36:52.020Z,964
2016-09-23T13:37:52.179Z,900
2016-09-23T13:38:52.183Z,972
2016-09-23T13:39:52.201Z,1064
2016-09-23T13:40:52.199Z,1148
2016-09-23T13:41:52.205Z,1288
2016-09-23T13:42:52.213Z,1496
2016-09-23T13:43:52.218Z,1740
2016-09-23T13:44:52.367Z,2048
2016-09-23T13:45:52.385Z,2092
2016-09-23T13:46:52.381Z,1804
2016-09-23T13:47:52.385Z,1392
2016-09-23T13:48:52.405Z,1072
2016-09-23T13:49:52.373Z,1012
2016-09-23T13:50:52.381Z,976
2016-09-23T13:51:52.383Z,952
2016-09-23T13:52:52.394Z,1060
2016-09-23T13:53:52.417Z,1176
2016-09-23T13:54:52.435Z,1256
2016-09-23T13:55:52.475Z,1300
2016-09-23T13:56:52.510Z,1292
2016-09-23T13:57:52.532Z,1188
2016-09-23T13:58:52.563Z,1144
2016-09-23T13:59:52.597Z,1148
2016-09-23T14:00:52.627Z,1360